Weather at Beijing Capital International Airport

Public forecast

Using degrees Celsius for public forecast. Weather courtesy of forecast.io.

Current aviation weather report (METAR) for Beijing Capital International Airport

2024/02/25 04:00 (retrieved 25 minutes ago)

ZBAA 250400Z 34003MPS 280V040 CAVOK 07/M15 Q1031 NOSIG

Closest aviation forecast (TAF) to Beijing Capital International Airport

Forecast is more than 6 hours old.

Closest forecast is Beijing Daxing International Airport, 35.2 nm (65.1 km) SSW.

2024/02/24 18:00 (retrieved 10 hours ago)

TAF ZBAA 241501Z 2418/2518 02004MPS CAVOK TX08/2507Z TNM06/2421Z TAF ZBAD 241501Z 2418/2518 02004MPS 5000 BR NSC TX08/2507Z TNM05/2421Z